Time;durP1;ratioP1;P1;durP2;ratioP2;P2;SDS_P1;SDS_P2;PMS_P1;PMS_P2;Temp;Humidity;BMP_temperature;BMP_pressure;BME280_temperature;BME280_humidity;BME280_pressure;Samples;Min_cycle;Max_cycle;Signal;HPM_P1;HPM_P2
2022/09/04 00:00:17;;;;;;;;;;;;;;;15.33;99.03;96890.34;30001;982;1863;-63
2022/09/04 00:00:55;;;;;;;;;;;;;;;15.33;98.60;96889.53;30002;982;1877;-60
2022/09/04 00:02:01;;;;;;;;;;;;;;;15.33;99.03;96889.53;30001;982;1885;-60
2022/09/04 00:02:50;;;;;;;;;;;;;;;15.32;99.03;96891.47;30001;982;1877;-62
2022/09/04 00:03:28;;;;;;;;;;;;;;;15.31;99.15;96892.59;30002;983;1876;-61
2022/09/04 00:04:21;;;;;;;;;;;;;;;15.30;99.11;96890.97;30001;985;1881;-60
2022/09/04 00:05:02;;;;;;;;;;;;;;;15.29;99.09;96889.38;30001;983;1859;-63
2022/09/04 00:05:54;;;;;;;;;;;;;;;15.29;99.14;96894.03;30001;983;1876;-60
2022/09/04 00:06:34;;;;;;;;;;;;;;;15.28;98.97;96887.75;30001;983;1885;-60
2022/09/04 00:07:25;;;;;;;;;;;;;;;15.33;99.16;96889.53;30001;982;1881;-61
2022/09/04 00:08:04;;;;;;;;;;;;;;;15.31;99.04;96884.37;30001;982;1855;-65
2022/09/04 00:09:00;;;;;;;;;;;;;;;15.31;98.90;96892.59;30001;982;1877;-60
2022/09/04 00:09:54;;;;;;;;;;;;;;;15.28;99.13;96884.22;30001;982;1886;-61
2022/09/04 00:10:33;;;;;;;;;;;;;;;15.26;99.45;96894.69;30001;983;1876;-60
2022/09/04 00:11:14;;;;;;;;;;;;;;;15.24;99.37;96896.97;30001;983;1863;-60
2022/09/04 00:11:51;;;;;;;;;;;;;;;15.23;99.50;96887.97;30001;983;1876;-61
2022/09/04 00:12:27;;;;;;;;;;;;;;;15.24;99.42;96902.44;30001;983;1885;-60
2022/09/04 00:13:20;;;;;;;;;;;;;;;15.24;99.64;96897.75;30001;983;1859;-62
2022/09/04 00:14:08;;;;;;;;;;;;;;;15.23;99.26;96901.63;30001;983;1881;-61
2022/09/04 00:15:00;;;;;;;;;;;;;;;15.22;99.43;96885.53;30001;976;1899;-60
2022/09/04 00:15:38;;;;;;;;;;;;;;;15.20;99.58;96899.53;30001;982;1885;-60
2022/09/04 00:16:18;;;;;;;;;;;;;;;15.21;99.75;96898.41;30001;982;1859;-60
2022/09/04 00:17:15;;;;;;;;;;;;;;;15.20;99.52;96907.72;30001;982;1881;-61
2022/09/04 00:18:05;;;;;;;;;;;;;;;15.20;99.73;96890.53;30001;983;1876;-60
2022/09/04 00:18:40;;;;;;;;;;;;;;;15.18;99.73;96901.78;30001;983;1885;-61
2022/09/04 00:19:19;;;;;;;;;;;;;;;15.19;100.00;96905.31;30001;983;1881;-61
2022/09/04 00:20:13;;;;;;;;;;;;;;;15.18;100.00;96899.03;30001;983;1885;-61
2022/09/04 00:21:02;;;;;;;;;;;;;;;15.18;99.90;96906.44;30001;983;1854;-61
2022/09/04 00:21:44;;;;;;;;;;;;;;;15.17;99.75;96902.09;30001;983;1881;-61
2022/09/04 00:22:27;;;;;;;;;;;;;;;15.16;99.96;96898.56;30001;982;1881;-59
2022/09/04 00:23:03;;;;;;;;;;;;;;;15.17;99.60;96902.09;30001;982;1885;-61
2022/09/04 00:23:52;;;;;;;;;;;;;;;15.17;99.47;96902.09;30001;976;1899;-60
2022/09/04 00:24:52;;;;;;;;;;;;;;;15.18;99.65;96890.84;30001;982;1877;-61
2022/09/04 00:25:41;;;;;;;;;;;;;;;15.18;99.19;96899.03;30001;983;1876;-61
2022/09/04 00:26:28;;;;;;;;;;;;;;;15.17;99.24;96896.63;30001;983;1854;-59
2022/09/04 00:27:04;;;;;;;;;;;;;;;15.16;99.40;96887.62;30001;983;1876;-61
2022/09/04 00:27:43;;;;;;;;;;;;;;;15.17;99.37;96889.25;30001;983;1885;-61
2022/09/04 00:28:36;;;;;;;;;;;;;;;15.19;99.27;96888.91;30001;983;1881;-61
2022/09/04 00:29:26;;;;;;;;;;;;;;;15.17;99.55;96897.44;30001;983;1885;-60
2022/09/04 00:30:04;;;;;;;;;;;;;;;15.17;99.34;96897.44;30001;982;1873;-61
2022/09/04 00:30:39;;;;;;;;;;;;;;;15.16;99.61;96901.28;30001;982;1885;-61
2022/09/04 00:31:29;;;;;;;;;;;;;;;15.16;99.70;96906.75;30001;982;1881;-60
2022/09/04 00:32:33;;;;;;;;;;;;;;;15.17;99.21;96902.91;30001;982;1855;-62
2022/09/04 00:33:19;;;;;;;;;;;;;;;15.17;99.20;96905.63;30001;983;1872;-61
2022/09/04 00:34:07;;;;;;;;;;;;;;;15.17;99.30;96910.31;30001;983;1885;-60
2022/09/04 00:35:13;;;;;;;;;;;;;;;15.16;99.49;96906.75;30001;983;1881;-60
2022/09/04 00:35:53;;;;;;;;;;;;;;;15.16;99.19;96901.28;30001;982;1881;-60
2022/09/04 00:36:26;;;;;;;;;;;;;;;15.16;99.34;96906.75;30001;983;1881;-63
2022/09/04 00:37:03;;;;;;;;;;;;;;;15.16;99.60;96904.03;30001;983;1885;-62
2022/09/04 00:37:37;;;;;;;;;;;;;;;15.16;99.62;96906.75;30001;982;1859;-62
2022/09/04 00:38:11;;;;;;;;;;;;;;;15.16;99.60;96898.56;30001;982;1859;-62
2022/09/04 00:38:49;;;;;;;;;;;;;;;15.17;99.27;96902.09;30001;982;1881;-61
2022/09/04 00:39:34;;;;;;;;;;;;;;;15.17;99.34;96902.09;30001;982;1864;-62
2022/09/04 00:40:13;;;;;;;;;;;;;;;15.16;99.39;96906.75;30001;983;1876;-61
2022/09/04 00:41:00;;;;;;;;;;;;;;;15.16;99.52;96909.50;30001;983;1885;-62
2022/09/04 00:41:41;;;;;;;;;;;;;;;15.17;99.33;96908.38;30001;983;1881;-62
2022/09/04 00:42:34;;;;;;;;;;;;;;;15.16;99.30;96906.75;30001;983;1885;-61
2022/09/04 00:43:17;;;;;;;;;;;;;;;15.17;99.48;96905.63;30001;983;1881;-63
2022/09/04 00:44:12;;;;;;;;;;;;;;;15.17;99.53;96902.09;30001;983;1863;-63
2022/09/04 00:44:59;;;;;;;;;;;;;;;15.14;99.46;96906.28;30001;982;1872;-61
2022/09/04 00:45:45;;;;;;;;;;;;;;;15.14;99.47;96903.53;30001;982;1864;-61
2022/09/04 00:46:38;;;;;;;;;;;;;;;15.15;99.81;96907.88;30001;982;1855;-61
2022/09/04 00:47:27;;;;;;;;;;;;;;;15.16;99.51;96906.75;30001;983;1885;-61
2022/09/04 00:48:20;;;;;;;;;;;;;;;15.17;99.45;96908.38;30001;983;1872;-61
2022/09/04 00:49:16;;;;;;;;;;;;;;;15.17;99.29;96913.84;30001;983;1880;-61
2022/09/04 00:50:10;;;;;;;;;;;;;;;15.18;99.48;96915.44;30001;983;1859;-62
2022/09/04 00:51:00;;;;;;;;;;;;;;;15.18;99.51;96904.50;30001;983;1881;-61
2022/09/04 00:51:51;;;;;;;;;;;;;;;15.17;99.26;96913.84;30001;982;1872;-63
2022/09/04 00:52:45;;;;;;;;;;;;;;;15.17;99.15;96913.84;30001;982;1881;-62
2022/09/04 00:53:30;;;;;;;;;;;;;;;15.17;99.52;96908.38;30001;982;1877;-64
2022/09/04 00:54:08;;;;;;;;;;;;;;;15.16;99.43;96912.22;30001;982;1864;-61
2022/09/04 00:54:59;;;;;;;;;;;;;;;15.15;99.31;96910.62;30001;982;1855;-60
2022/09/04 00:56:02;;;;;;;;;;;;;;;15.16;99.15;96912.22;30001;983;1880;-60
2022/09/04 00:57:12;;;;;;;;;;;;;;;15.17;99.08;96913.84;30001;983;1854;-61
2022/09/04 00:58:16;;;;;;;;;;;;;;;15.17;99.12;96919.31;30001;983;1876;-60
2022/09/04 00:59:20;;;;;;;;;;;;;;;15.16;99.06;96912.22;30001;976;1862;-61
2022/09/04 01:00:14;;;;;;;;;;;;;;;15.16;99.21;96911.44;30001;982;1855;-61
2022/09/04 01:00:46;;;;;;;;;;;;;;;15.16;99.33;96923.16;30001;982;1881;-62
2022/09/04 01:01:22;;;;;;;;;;;;;;;15.16;99.07;96917.69;30001;982;1886;-63
2022/09/04 01:02:01;;;;;;;;;;;;;;;15.16;99.44;96912.22;30001;982;1881;-63
2022/09/04 01:02:50;;;;;;;;;;;;;;;15.15;98.96;96921.56;30001;983;1853;-59
2022/09/04 01:03:53;;;;;;;;;;;;;;;15.16;99.21;96922.34;30001;983;1872;-61
2022/09/04 01:04:45;;;;;;;;;;;;;;;15.18;99.42;96926.38;30001;983;1859;-60
2022/09/04 01:05:39;;;;;;;;;;;;;;;15.19;99.08;96921.72;30001;983;1872;-61
2022/09/04 01:06:33;;;;;;;;;;;;;;;15.18;99.12;96920.91;30001;977;1900;-61
2022/09/04 01:07:38;;;;;;;;;;;;;;;15.21;99.01;96931.19;30001;982;1881;-61
2022/09/04 01:08:39;;;;;;;;;;;;;;;15.23;98.98;96925.41;30001;982;1881;-60
2022/09/04 01:09:24;;;;;;;;;;;;;;;15.21;98.98;96931.19;30001;982;1855;-61
2022/09/04 01:10:07;;;;;;;;;;;;;;;15.22;99.21;96923.81;30001;983;1880;-60
2022/09/04 01:10:52;;;;;;;;;;;;;;;15.21;99.35;96931.19;30001;983;1881;-60
2022/09/04 01:11:43;;;;;;;;;;;;;;;15.20;99.05;96932.31;30001;983;1885;-61
2022/09/04 01:12:34;;;;;;;;;;;;;;;15.20;99.01;96935.06;30001;983;1876;-61
2022/09/04 01:13:15;;;;;;;;;;;;;;;15.20;98.85;96931.53;30001;983;1880;-61
2022/09/04 01:14:12;;;;;;;;;;;;;;;15.19;99.09;96928.00;30001;983;1880;-62
2022/09/04 01:15:01;;;;;;;;;;;;;;;15.18;99.45;96931.84;30001;982;1854;-61
2022/09/04 01:15:58;;;;;;;;;;;;;;;15.17;99.54;96934.91;30001;982;1872;-61
2022/09/04 01:16:34;;;;;;;;;;;;;;;15.15;99.82;96937.16;30001;982;1881;-61
2022/09/04 01:17:26;;;;;;;;;;;;;;;15.14;99.71;96936.34;30001;982;1881;-63
2022/09/04 01:18:22;;;;;;;;;;;;;;;15.13;99.83;96928.47;30001;983;1885;-60
2022/09/04 01:19:01;;;;;;;;;;;;;;;15.13;99.98;96939.41;30001;983;1790;-62
2022/09/04 01:19:55;;;;;;;;;;;;;;;15.13;99.72;96934.72;30001;983;1885;-62
2022/09/04 01:20:44;;;;;;;;;;;;;;;15.14;99.67;96936.34;30001;983;1858;-61
2022/09/04 01:21:35;;;;;;;;;;;;;;;15.15;99.77;96935.22;30001;983;1880;-61
2022/09/04 01:22:20;;;;;;;;;;;;;;;15.15;99.86;96943.41;30001;982;1876;-61
2022/09/04 01:23:17;;;;;;;;;;;;;;;15.15;99.85;96932.47;30001;987;1849;-61
2022/09/04 01:23:59;;;;;;;;;;;;;;;15.12;99.83;96938.59;30001;982;1850;-62
2022/09/04 01:24:58;;;;;;;;;;;;;;;15.11;99.75;96931.50;30001;983;1876;-61
2022/09/04 01:25:34;;;;;;;;;;;;;;;15.12;99.92;96933.12;30001;983;1880;-61
2022/09/04 01:26:27;;;;;;;;;;;;;;;15.12;99.90;96938.59;30001;986;1867;-62
2022/09/04 01:27:16;;;;;;;;;;;;;;;15.12;99.78;96935.84;30001;983;1880;-63
2022/09/04 01:28:04;;;;;;;;;;;;;;;15.12;99.76;96935.84;30001;983;1854;-63
2022/09/04 01:28:54;;;;;;;;;;;;;;;15.12;100.00;96926.84;30001;983;1876;-62
2022/09/04 01:29:40;;;;;;;;;;;;;;;15.10;100.00;96929.91;30001;982;1867;-62
2022/09/04 01:30:14;;;;;;;;;;;;;;;15.09;100.00;96934.56;30001;982;1881;-61
2022/09/04 01:30:50;;;;;;;;;;;;;;;15.08;100.00;96938.41;30001;982;1876;-62
2022/09/04 01:31:45;;;;;;;;;;;;;;;15.09;100.00;96944.69;30001;982;1880;-62
2022/09/04 01:32:28;;;;;;;;;;;;;;;15.08;100.00;96937.63;30001;983;1875;-62
2022/09/04 01:33:22;;;;;;;;;;;;;;;15.08;100.00;96940.34;30001;983;1858;-64
2022/09/04 01:34:13;;;;;;;;;;;;;;;15.08;100.00;96941.16;30001;983;1845;-61
2022/09/04 01:35:03;;;;;;;;;;;;;;;15.07;100.00;96946.94;30001;983;1871;-61
2022/09/04 01:35:43;;;;;;;;;;;;;;;15.07;100.00;96939.53;30001;983;1872;-63
2022/09/04 01:36:22;;;;;;;;;;;;;;;15.07;100.00;96944.22;30001;983;1880;-63
2022/09/04 01:37:05;;;;;;;;;;;;;;;15.05;100.00;96932.78;30001;982;1876;-61
2022/09/04 01:37:49;;;;;;;;;;;;;;;15.05;100.00;96946.44;30001;985;1871;-65
2022/09/04 01:38:42;;;;;;;;;;;;;;;15.04;100.00;96942.13;30001;982;1881;-62
2022/09/04 01:39:20;;;;;;;;;;;;;;;15.03;100.00;96945.97;30001;983;1849;-60
2022/09/04 01:40:14;;;;;;;;;;;;;;;15.03;100.00;96937.78;30001;983;1876;-62
2022/09/04 01:40:56;;;;;;;;;;;;;;;15.02;100.00;96941.62;30001;983;1871;-63
2022/09/04 01:41:33;;;;;;;;;;;;;;;15.02;100.00;96942.44;30001;983;1880;-61
2022/09/04 01:42:11;;;;;;;;;;;;;;;15.02;100.00;96945.16;30001;983;1876;-65
2022/09/04 01:42:52;;;;;;;;;;;;;;;15.02;100.00;96942.44;30001;983;1880;-63
2022/09/04 01:43:24;;;;;;;;;;;;;;;15.04;100.00;96942.13;30001;983;1876;-61
2022/09/04 01:43:55;;;;;;;;;;;;;;;15.04;100.00;96947.56;30001;983;1880;-63
2022/09/04 01:44:32;;;;;;;;;;;;;;;15.05;100.00;96949.19;30001;982;1854;-62
2022/09/04 01:45:15;;;;;;;;;;;;;;;15.04;100.00;96947.56;30001;982;1876;-62
2022/09/04 01:46:22;;;;;;;;;;;;;;;15.04;100.00;96953.03;30001;982;1854;-65
2022/09/04 01:47:15;;;;;;;;;;;;;;;15.04;100.00;96953.03;30001;983;1871;-63
2022/09/04 01:47:52;;;;;;;;;;;;;;;15.05;100.00;96949.19;30001;983;1876;-61
2022/09/04 01:48:45;;;;;;;;;;;;;;;15.06;99.98;96951.59;30001;983;1880;-61
2022/09/04 01:49:26;;;;;;;;;;;;;;;15.07;99.65;96946.94;30001;962;1820;-64
2022/09/04 01:50:05;;;;;;;;;;;;;;;15.08;99.54;96948.53;30001;983;1880;-61
2022/09/04 01:50:38;;;;;;;;;;;;;;;15.06;99.65;96948.88;30001;983;1876;-62
2022/09/04 01:51:35;;;;;;;;;;;;;;;15.07;99.60;96952.41;30001;982;1858;-62
2022/09/04 01:52:20;;;;;;;;;;;;;;;15.04;100.00;96948.38;30001;982;1872;-61
2022/09/04 01:53:00;;;;;;;;;;;;;;;15.03;100.00;96946.78;30001;982;1881;-63
2022/09/04 01:53:36;;;;;;;;;;;;;;;15.04;99.96;96953.84;30001;982;1876;-64
2022/09/04 01:54:25;;;;;;;;;;;;;;;15.03;99.74;96951.44;30001;982;1881;-63
2022/09/04 01:55:16;;;;;;;;;;;;;;;15.04;99.90;96953.03;30001;983;1845;-64
2022/09/04 01:55:57;;;;;;;;;;;;;;;15.04;99.90;96955.78;30001;974;1858;-65
2022/09/04 01:56:35;;;;;;;;;;;;;;;15.04;99.63;96953.03;30001;983;1876;-61
2022/09/04 01:57:45;;;;;;;;;;;;;;;15.03;99.62;96951.44;30001;983;1880;-62
2022/09/04 01:58:34;;;;;;;;;;;;;;;15.04;99.31;96953.03;30001;983;1872;-62
2022/09/04 01:59:27;;;;;;;;;;;;;;;15.01;99.23;96956.41;30001;982;1881;-63
2022/09/04 02:00:15;;;;;;;;;;;;;;;15.02;99.44;96955.28;30001;982;1876;-62
2022/09/04 02:01:09;;;;;;;;;;;;;;;15.01;99.45;96953.69;30001;982;1859;-66
2022/09/04 02:02:08;;;;;;;;;;;;;;;15.02;99.60;96955.28;30001;982;1846;-61
2022/09/04 02:02:54;;;;;;;;;;;;;;;14.98;99.29;96965.25;30001;962;1897;-61
2022/09/04 02:03:38;;;;;;;;;;;;;;;14.99;99.50;96958.66;30001;983;1876;-61
2022/09/04 02:04:30;;;;;;;;;;;;;;;15.00;99.34;96957.53;30001;983;1880;-61
2022/09/04 02:05:20;;;;;;;;;;;;;;;14.99;99.20;96961.38;30001;972;1874;-61
2022/09/04 02:06:14;;;;;;;;;;;;;;;14.97;99.26;96958.16;30001;983;1867;-63
2022/09/04 02:06:56;;;;;;;;;;;;;;;14.98;99.02;96949.66;30001;982;1876;-61
2022/09/04 02:07:33;;;;;;;;;;;;;;;14.99;99.41;96958.66;30001;972;1898;-62
2022/09/04 02:08:20;;;;;;;;;;;;;;;14.99;99.17;96954.00;30001;982;1876;-61
2022/09/04 02:09:20;;;;;;;;;;;;;;;14.99;99.00;96961.38;30001;982;1881;-62
2022/09/04 02:10:26;;;;;;;;;;;;;;;15.00;98.50;96958.34;30001;963;1791;-62
2022/09/04 02:11:26;;;;;;;;;;;;;;;14.98;98.21;96954.31;30001;983;1854;-62
2022/09/04 02:12:24;;;;;;;;;;;;;;;14.95;98.47;96960.41;30001;983;1867;-60
2022/09/04 02:13:15;;;;;;;;;;;;;;;14.95;98.66;96965.88;30001;983;1876;-62
2022/09/04 02:14:21;;;;;;;;;;;;;;;14.94;98.50;96958.81;30001;982;1872;-61
2022/09/04 02:15:12;;;;;;;;;;;;;;;14.92;98.99;96955.59;30001;982;1876;-61
2022/09/04 02:16:19;;;;;;;;;;;;;;;14.93;98.62;96968.13;30001;986;1863;-62
2022/09/04 02:17:05;;;;;;;;;;;;;;;14.92;98.65;96953.66;30001;982;1855;-61
2022/09/04 02:18:01;;;;;;;;;;;;;;;14.92;98.44;96961.84;30001;983;1850;-61
2022/09/04 02:18:49;;;;;;;;;;;;;;;14.93;98.41;96968.94;30001;983;1880;-62
2022/09/04 02:19:38;;;;;;;;;;;;;;;14.97;98.17;96969.09;30001;983;1876;-64
2022/09/04 02:20:38;;;;;;;;;;;;;;;14.98;97.87;96973.44;30001;983;1872;-63
2022/09/04 02:21:27;;;;;;;;;;;;;;;14.97;97.97;96963.62;30001;982;1850;-62
2022/09/04 02:22:27;;;;;;;;;;;;;;;14.96;97.66;96962.03;30001;982;1876;-63
2022/09/04 02:23:10;;;;;;;;;;;;;;;14.96;97.73;96962.03;30001;982;1850;-61
2022/09/04 02:23:47;;;;;;;;;;;;;;;14.97;97.61;96971.84;30001;983;1876;-62
2022/09/04 02:24:31;;;;;;;;;;;;;;;14.97;97.58;96960.91;30001;983;1854;-64
2022/09/04 02:25:25;;;;;;;;;;;;;;;14.98;97.41;96954.31;30001;983;1876;-61
2022/09/04 02:26:22;;;;;;;;;;;;;;;14.98;97.31;96962.50;30001;983;1872;-61
2022/09/04 02:27:11;;;;;;;;;;;;;;;14.96;97.28;96962.81;30001;983;1876;-61
2022/09/04 02:28:02;;;;;;;;;;;;;;;14.95;97.47;96960.41;30001;983;1867;-64
2022/09/04 02:28:54;;;;;;;;;;;;;;;14.95;97.57;96969.41;30001;983;1876;-61
2022/09/04 02:29:39;;;;;;;;;;;;;;;14.96;97.44;96971.03;30001;982;1846;-64
2022/09/04 02:30:15;;;;;;;;;;;;;;;14.97;97.05;96963.62;30001;982;1876;-63
2022/09/04 02:31:04;;;;;;;;;;;;;;;14.97;97.17;96964.44;30001;982;1877;-61
2022/09/04 02:31:44;;;;;;;;;;;;;;;14.98;96.84;96965.25;30001;983;1871;-61
2022/09/04 02:32:36;;;;;;;;;;;;;;;15.02;96.61;96966.22;30001;983;1876;-60
2022/09/04 02:33:14;;;;;;;;;;;;;;;15.01;96.10;96961.88;30001;983;1859;-60
2022/09/04 02:33:48;;;;;;;;;;;;;;;14.99;96.39;96962.19;30001;983;1872;-62
2022/09/04 02:34:33;;;;;;;;;;;;;;;14.98;96.21;96967.97;30001;983;1880;-60
2022/09/04 02:35:30;;;;;;;;;;;;;;;14.96;96.38;96964.75;30001;983;1876;-61
2022/09/04 02:36:07;;;;;;;;;;;;;;;14.97;96.42;96969.09;30001;983;1876;-61
2022/09/04 02:36:48;;;;;;;;;;;;;;;14.96;96.29;96970.22;30001;982;1876;-62
2022/09/04 02:37:37;;;;;;;;;;;;;;;14.95;96.39;96972.16;30001;982;1881;-62
2022/09/04 02:38:14;;;;;;;;;;;;;;;14.95;96.59;96969.41;30001;982;1846;-61
2022/09/04 02:38:51;;;;;;;;;;;;;;;14.96;96.08;96981.16;30001;983;1876;-61
2022/09/04 02:39:40;;;;;;;;;;;;;;;14.95;96.11;96968.63;30001;983;1854;-61
2022/09/04 02:40:18;;;;;;;;;;;;;;;14.95;96.16;96971.34;30001;983;1876;-63
2022/09/04 02:40:52;;;;;;;;;;;;;;;14.94;96.56;96975.19;30001;983;1876;-61
2022/09/04 02:41:46;;;;;;;;;;;;;;;14.95;96.50;96968.63;30001;983;1880;-61
2022/09/04 02:42:38;;;;;;;;;;;;;;;14.98;96.37;96970.72;30001;983;1872;-62
2022/09/04 02:43:35;;;;;;;;;;;;;;;15.00;95.66;96968.47;30001;983;1876;-61
2022/09/04 02:44:26;;;;;;;;;;;;;;;14.99;95.77;96975.06;30001;982;1876;-62
2022/09/04 02:45:14;;;;;;;;;;;;;;;14.93;96.08;96974.41;30001;982;1855;-62
2022/09/04 02:46:00;;;;;;;;;;;;;;;14.92;96.23;96974.72;30001;982;1873;-65
2022/09/04 02:46:57;;;;;;;;;;;;;;;14.93;96.28;96968.13;30001;983;1880;-61
2022/09/04 02:47:36;;;;;;;;;;;;;;;14.94;96.18;96969.72;30001;983;1872;-62
2022/09/04 02:48:17;;;;;;;;;;;;;;;14.94;96.02;96969.72;30001;983;1880;-61
2022/09/04 02:49:06;;;;;;;;;;;;;;;14.95;96.12;96971.34;30001;983;1877;-62
2022/09/04 02:49:49;;;;;;;;;;;;;;;14.95;96.12;96974.06;30001;983;1872;-61
2022/09/04 02:50:39;;;;;;;;;;;;;;;14.94;95.64;96975.19;30001;983;1854;-64
2022/09/04 02:51:39;;;;;;;;;;;;;;;14.95;95.74;96974.06;30001;982;1868;-65
2022/09/04 02:52:29;;;;;;;;;;;;;;;14.95;95.71;96974.06;30001;982;1872;-65
2022/09/04 02:53:19;;;;;;;;;;;;;;;14.96;95.53;96967.50;30001;982;1881;-63
2022/09/04 02:54:19;;;;;;;;;;;;;;;14.97;95.58;96974.56;30001;983;1876;-62
2022/09/04 02:55:10;;;;;;;;;;;;;;;14.96;95.11;96971.03;30001;983;1876;-64
2022/09/04 02:55:59;;;;;;;;;;;;;;;14.97;95.11;96974.56;30001;983;1854;-62
2022/09/04 02:56:38;;;;;;;;;;;;;;;14.95;95.33;96976.81;30001;983;1867;-62
2022/09/04 02:57:28;;;;;;;;;;;;;;;14.94;95.42;96972.47;30001;983;1876;-63
2022/09/04 02:58:26;;;;;;;;;;;;;;;14.96;95.60;96975.69;30001;983;1854;-62
2022/09/04 02:59:07;;;;;;;;;;;;;;;15.03;94.78;96968.63;30001;982;1855;-62
2022/09/04 02:59:57;;;;;;;;;;;;;;;15.07;94.12;96971.53;30001;982;1885;-61
2022/09/04 03:00:46;;;;;;;;;;;;;;;15.04;93.95;96969.44;30001;982;1872;-63
2022/09/04 03:01:28;;;;;;;;;;;;;;;15.06;94.00;96973.47;30001;982;1885;-61
2022/09/04 03:02:03;;;;;;;;;;;;;;;15.05;94.08;96976.50;30001;983;1880;-61
2022/09/04 03:02:37;;;;;;;;;;;;;;;15.06;93.95;96978.13;30001;983;1885;-62
2022/09/04 03:03:13;;;;;;;;;;;;;;;15.04;94.28;96977.63;30001;983;1880;-63
2022/09/04 03:03:53;;;;;;;;;;;;;;;15.00;94.18;96979.41;30001;983;1885;-64
2022/09/04 03:04:48;;;;;;;;;;;;;;;14.97;94.55;96980.03;30001;983;1859;-63
2022/09/04 03:05:27;;;;;;;;;;;;;;;14.96;94.30;96978.41;30001;983;1881;-62
2022/09/04 03:06:01;;;;;;;;;;;;;;;14.95;94.40;96980.34;30001;982;1859;-62
2022/09/04 03:06:57;;;;;;;;;;;;;;;14.92;94.50;96975.50;30001;982;1881;-64
2022/09/04 03:07:40;;;;;;;;;;;;;;;14.89;94.87;96973.44;30001;982;1877;-62
2022/09/04 03:08:18;;;;;;;;;;;;;;;14.87;94.81;96981.16;30001;982;1885;-62
2022/09/04 03:08:55;;;;;;;;;;;;;;;14.86;94.95;96976.81;30001;982;1881;-64
2022/09/04 03:09:39;;;;;;;;;;;;;;;14.86;94.77;96973.28;30001;983;1885;-61
2022/09/04 03:10:18;;;;;;;;;;;;;;;14.86;94.70;96978.75;30001;983;1858;-61
2022/09/04 03:11:09;;;;;;;;;;;;;;;14.85;94.63;96977.13;30001;983;1880;-62
2022/09/04 03:11:43;;;;;;;;;;;;;;;14.81;94.98;96981.63;30001;983;1876;-65
2022/09/04 03:12:34;;;;;;;;;;;;;;;14.77;95.28;96986.09;30001;983;1885;-61
2022/09/04 03:13:13;;;;;;;;;;;;;;;14.72;95.33;96979.66;30001;983;1876;-62
2022/09/04 03:14:12;;;;;;;;;;;;;;;14.69;95.90;96980.28;30001;982;1863;-62
2022/09/04 03:14:47;;;;;;;;;;;;;;;14.66;96.17;96986.38;30001;982;1872;-63
2022/09/04 03:15:28;;;;;;;;;;;;;;;14.64;96.03;96980.44;30001;982;1886;-64
2022/09/04 03:16:21;;;;;;;;;;;;;;;14.65;96.46;96982.03;30001;982;1881;-63
2022/09/04 03:17:21;;;;;;;;;;;;;;;14.62;96.08;96974.47;30001;983;1880;-62
2022/09/04 03:18:03;;;;;;;;;;;;;;;14.63;96.28;96978.81;30001;983;1876;-62
2022/09/04 03:18:50;;;;;;;;;;;;;;;14.62;95.93;96979.94;30001;983;1885;-62
2022/09/04 03:19:41;;;;;;;;;;;;;;;14.61;96.14;96985.72;30001;983;1859;-62
2022/09/04 03:20:22;;;;;;;;;;;;;;;14.60;96.00;96981.38;30001;983;1855;-62
2022/09/04 03:20:56;;;;;;;;;;;;;;;14.58;96.09;96984.41;30001;982;1881;-61
2022/09/04 03:21:49;;;;;;;;;;;;;;;14.57;96.09;96980.09;30001;982;1864;-62
2022/09/04 03:22:27;;;;;;;;;;;;;;;14.55;96.15;96978.81;30001;982;1877;-63
2022/09/04 03:23:21;;;;;;;;;;;;;;;14.54;96.08;96983.47;30001;982;1864;-62
2022/09/04 03:24:18;;;;;;;;;;;;;;;14.65;95.51;96978.50;30001;983;1872;-64
2022/09/04 03:25:07;;;;;;;;;;;;;;;14.65;95.22;96983.97;30001;983;1859;-64
2022/09/04 03:26:13;;;;;;;;;;;;;;;14.62;95.08;96979.12;30001;983;1867;-62
2022/09/04 03:26:49;;;;;;;;;;;;;;;14.54;95.63;96980.75;30001;983;1881;-67
2022/09/04 03:27:20;;;;;;;;;;;;;;;14.51;95.97;96981.38;30001;983;1881;-63
2022/09/04 03:27:51;;;;;;;;;;;;;;;14.48;95.97;96981.19;30001;983;1885;-65
2022/09/04 03:28:50;;;;;;;;;;;;;;;14.45;96.18;96974.44;30001;984;1881;-62
2022/09/04 03:29:25;;;;;;;;;;;;;;;14.42;96.32;96980.53;30001;982;1885;-63
2022/09/04 03:30:07;;;;;;;;;;;;;;;14.41;96.49;96984.38;30001;982;1859;-64
2022/09/04 03:30:38;;;;;;;;;;;;;;;14.41;96.85;96979.72;30001;982;1881;-62
2022/09/04 03:31:22;;;;;;;;;;;;;;;14.40;96.91;96982.72;30001;983;1880;-63
2022/09/04 03:32:06;;;;;;;;;;;;;;;14.39;96.54;96986.59;30001;983;1863;-61
2022/09/04 03:33:02;;;;;;;;;;;;;;;14.40;96.92;96978.06;30001;983;1876;-63
2022/09/04 03:33:38;;;;;;;;;;;;;;;14.38;96.64;96991.22;30001;983;1859;-64
2022/09/04 03:34:27;;;;;;;;;;;;;;;14.37;96.95;96986.09;30001;983;1876;-64
2022/09/04 03:35:16;;;;;;;;;;;;;;;14.35;96.99;96985.59;30001;983;1877;-63
2022/09/04 03:35:58;;;;;;;;;;;;;;;14.32;97.47;96980.75;30001;982;1876;-62
2022/09/04 03:36:48;;;;;;;;;;;;;;;14.33;97.17;96982.37;30001;982;1885;-65
2022/09/04 03:37:31;;;;;;;;;;;;;;;14.33;97.61;96987.84;30001;982;1859;-61
2022/09/04 03:38:14;;;;;;;;;;;;;;;14.34;97.33;96989.44;30001;982;1881;-65
2022/09/04 03:39:11;;;;;;;;;;;;;;;14.33;97.13;96988.63;30001;983;1858;-62
2022/09/04 03:40:08;;;;;;;;;;;;;;;14.32;97.27;96983.50;30001;983;1876;-65
2022/09/04 03:40:41;;;;;;;;;;;;;;;14.32;97.34;96986.22;30001;983;1876;-62
2022/09/04 03:41:32;;;;;;;;;;;;;;;14.31;97.61;96984.63;30001;983;1885;-61
2022/09/04 03:42:18;;;;;;;;;;;;;;;14.36;97.23;96992.66;30001;983;1876;-64
2022/09/04 03:43:02;;;;;;;;;;;;;;;14.35;97.14;96986.41;30001;983;1885;-65
2022/09/04 03:43:56;;;;;;;;;;;;;;;14.35;97.13;96988.31;30001;982;1859;-63
2022/09/04 03:44:42;;;;;;;;;;;;;;;14.33;97.37;96990.56;30001;982;1881;-65
2022/09/04 03:45:23;;;;;;;;;;;;;;;14.32;97.90;96988.94;30001;982;1859;-62
2022/09/04 03:46:09;;;;;;;;;;;;;;;14.30;97.81;96988.47;30001;983;1880;-61
2022/09/04 03:47:14;;;;;;;;;;;;;;;14.30;97.94;96989.25;30001;983;1881;-62
2022/09/04 03:48:11;;;;;;;;;;;;;;;14.30;98.06;96980.28;30001;983;1854;-62
2022/09/04 03:48:50;;;;;;;;;;;;;;;14.29;98.41;96982.19;30001;983;1846;-62
2022/09/04 03:49:30;;;;;;;;;;;;;;;14.29;98.26;96986.84;30001;983;1881;-62
2022/09/04 03:50:20;;;;;;;;;;;;;;;14.28;98.18;96983.31;30001;983;1877;-65
2022/09/04 03:51:17;;;;;;;;;;;;;;;14.31;97.96;96987.34;30001;982;1877;-62
2022/09/04 03:52:14;;;;;;;;;;;;;;;14.34;97.83;96987.53;30001;982;1872;-62
2022/09/04 03:53:08;;;;;;;;;;;;;;;14.34;97.98;96992.19;30001;982;1855;-63
2022/09/04 03:54:02;;;;;;;;;;;;;;;14.34;97.75;96992.19;30001;957;1893;-64
2022/09/04 03:54:53;;;;;;;;;;;;;;;14.36;97.86;96984.47;30001;983;1876;-64
2022/09/04 03:55:55;;;;;;;;;;;;;;;14.40;97.55;96980.81;30001;983;1872;-62
2022/09/04 03:56:52;;;;;;;;;;;;;;;14.42;97.23;96994.19;30001;983;1881;-66
2022/09/04 03:57:30;;;;;;;;;;;;;;;14.43;97.28;96993.06;30001;983;1872;-62
2022/09/04 03:58:37;;;;;;;;;;;;;;;14.43;96.96;96993.06;30001;982;1859;-62
2022/09/04 03:59:14;;;;;;;;;;;;;;;14.44;97.15;96983.75;30001;982;1868;-62
2022/09/04 03:59:53;;;;;;;;;;;;;;;14.44;96.95;96993.84;30001;982;1881;-62
2022/09/04 04:00:24;;;;;;;;;;;;;;;14.45;96.95;96999.00;30001;982;1855;-61
2022/09/04 04:01:21;;;;;;;;;;;;;;;14.46;96.69;96991.63;30001;983;1876;-61
2022/09/04 04:02:11;;;;;;;;;;;;;;;14.47;96.61;96993.22;30001;983;1850;-66
2022/09/04 04:02:53;;;;;;;;;;;;;;;14.47;96.75;96999.50;30001;983;1867;-64
2022/09/04 04:03:56;;;;;;;;;;;;;;;14.47;96.72;96999.50;30001;983;1876;-62
2022/09/04 04:04:59;;;;;;;;;;;;;;;14.47;97.16;96995.97;30001;983;1854;-63
2022/09/04 04:05:56;;;;;;;;;;;;;;;14.49;96.92;97000.00;30001;982;1868;-62
2022/09/04 04:06:48;;;;;;;;;;;;;;;14.53;96.34;96998.25;30001;982;1855;-62
2022/09/04 04:07:41;;;;;;;;;;;;;;;14.53;96.03;96992.78;30001;982;1785;-65
2022/09/04 04:08:35;;;;;;;;;;;;;;;14.54;95.82;96997.13;30001;982;1877;-62
2022/09/04 04:09:17;;;;;;;;;;;;;;;14.56;95.88;97003.03;30001;983;1850;-61
2022/09/04 04:10:08;;;;;;;;;;;;;;;14.56;95.88;97000.31;30001;983;1876;-62
2022/09/04 04:11:15;;;;;;;;;;;;;;;14.56;96.14;97008.50;30001;983;1872;-62
2022/09/04 04:12:01;;;;;;;;;;;;;;;14.55;95.57;97000.66;30001;983;1855;-64
2022/09/04 04:12:58;;;;;;;;;;;;;;;14.54;95.88;97005.31;30001;983;1872;-62
2022/09/04 04:13:48;;;;;;;;;;;;;;;14.58;95.37;97003.53;30001;982;1876;-66